Time;durP1;ratioP1;P1;durP2;ratioP2;P2;SDS_P1;SDS_P2;PMS_P1;PMS_P2;Temp;Humidity;BMP_temperature;BMP_pressure;BME280_temperature;BME280_humidity;BME280_pressure;Samples;Min_cycle;Max_cycle;Signal;HPM_P1;HPM_P2
2020/12/18 00:00:33;;;;;;;3.30;1.77;;;;;21.10;101108.00;;;;2078275;28;20299;-66
2020/12/18 00:01:34;;;;;;;3.50;2.10;;;;;21.10;101105.00;;;;2075833;28;20222;-66
2020/12/18 00:02:34;;;;;;;3.40;2.23;;;;;21.10;101108.00;;;;2069246;28;20222;-67
2020/12/18 00:03:35;;;;;;;2.17;1.90;;;;;21.10;101112.00;;;;2067282;28;20233;-67
2020/12/18 00:04:35;;;;;;;2.90;2.10;;;;;21.10;101100.00;;;;2078318;28;20212;-66
2020/12/18 00:05:39;;;;;;;1.60;1.40;;;;;21.10;101101.00;;;;2078881;28;20452;-67
2020/12/18 00:06:39;;;;;;;2.13;1.70;;;;;21.10;101092.00;;;;2081063;28;20215;-67
2020/12/18 00:07:39;;;;;;;2.30;1.57;;;;;21.10;101095.00;;;;2080967;28;20698;-67
2020/12/18 00:08:40;;;;;;;1.90;1.80;;;;;21.10;101103.00;;;;2081129;28;20682;-67
2020/12/18 00:09:41;;;;;;;2.07;1.87;;;;;21.10;101101.00;;;;2081048;28;20202;-67
2020/12/18 00:10:41;;;;;;;2.08;1.67;;;;;21.10;101101.00;;;;2077070;28;20206;-67
2020/12/18 00:11:41;;;;;;;2.10;1.80;;;;;21.10;101096.00;;;;2076870;28;20262;-67
2020/12/18 00:12:42;;;;;;;1.97;1.70;;;;;21.00;101093.00;;;;2076935;28;20213;-67
2020/12/18 00:13:42;;;;;;;3.37;2.00;;;;;21.00;101095.00;;;;2076768;28;20231;-67
2020/12/18 00:14:43;;;;;;;2.77;2.00;;;;;21.00;101105.00;;;;2076719;28;20200;-67
2020/12/18 00:15:43;;;;;;;2.30;1.67;;;;;21.00;101107.00;;;;2076970;28;20300;-67
2020/12/18 00:16:43;;;;;;;3.57;2.10;;;;;21.00;101101.00;;;;2076786;28;20264;-67
2020/12/18 00:17:43;;;;;;;2.57;1.80;;;;;21.00;101111.00;;;;2077023;28;20209;-67
2020/12/18 00:18:44;;;;;;;2.17;1.90;;;;;21.00;101109.00;;;;2076741;28;20244;-67
2020/12/18 00:19:44;;;;;;;3.53;1.70;;;;;21.00;101108.00;;;;2077228;28;20232;-67
2020/12/18 00:20:45;;;;;;;1.90;1.70;;;;;21.00;101104.00;;;;2076614;28;20268;-67
2020/12/18 00:21:45;;;;;;;2.73;1.97;;;;;21.00;101103.00;;;;2077355;28;20220;-67
2020/12/18 00:22:45;;;;;;;4.30;1.77;;;;;21.00;101102.00;;;;2076378;28;20359;-66
2020/12/18 00:23:46;;;;;;;1.97;1.67;;;;;21.00;101105.00;;;;2068728;28;20210;-66
2020/12/18 00:24:46;;;;;;;2.57;1.63;;;;;21.00;101099.00;;;;2067658;28;20226;-66
2020/12/18 00:25:47;;;;;;;2.70;1.83;;;;;21.00;101103.00;;;;2077523;28;20259;-67
2020/12/18 00:26:47;;;;;;;3.28;1.75;;;;;21.00;101105.00;;;;2076031;28;20213;-67
2020/12/18 00:27:48;;;;;;;2.60;1.93;;;;;21.00;101103.00;;;;2077553;28;20221;-67
2020/12/18 00:28:48;;;;;;;2.57;1.70;;;;;21.00;101096.00;;;;2076127;28;20583;-67
2020/12/18 00:29:49;;;;;;;2.80;1.97;;;;;21.00;101095.00;;;;2077804;28;20213;-67
2020/12/18 00:30:49;;;;;;;2.50;1.83;;;;;21.00;101106.00;;;;2075926;28;20248;-67
2020/12/18 00:31:49;;;;;;;4.13;2.10;;;;;21.00;101099.00;;;;2068956;28;20214;-67
2020/12/18 00:32:49;;;;;;;1.80;1.50;;;;;21.00;101099.00;;;;2066976;28;20225;-66
2020/12/18 00:33:50;;;;;;;4.00;2.07;;;;;21.00;101100.00;;;;2077872;28;20283;-66
2020/12/18 00:34:50;;;;;;;2.60;2.03;;;;;21.00;101099.00;;;;2077978;28;20638;-67
2020/12/18 00:35:51;;;;;;;2.93;1.97;;;;;21.00;101096.00;;;;2078632;28;20237;-67
2020/12/18 00:36:51;;;;;;;2.33;1.63;;;;;21.00;101101.00;;;;2080734;28;20213;-67
2020/12/18 00:37:52;;;;;;;2.90;2.23;;;;;21.00;101103.00;;;;2080698;28;20273;-67
2020/12/18 00:38:52;;;;;;;2.90;1.67;;;;;21.00;101107.00;;;;2081016;28;20340;-67
2020/12/18 00:39:52;;;;;;;2.73;1.60;;;;;21.00;101100.00;;;;2075394;28;20224;-67
2020/12/18 00:40:53;;;;;;;2.57;1.70;;;;;21.00;101099.00;;;;2077334;28;20212;-67
2020/12/18 00:41:53;;;;;;;2.33;1.80;;;;;21.00;101101.00;;;;2074924;28;20224;-66
2020/12/18 00:42:54;;;;;;;2.80;1.90;;;;;21.00;101100.00;;;;2069114;28;20220;-67
2020/12/18 00:43:54;;;;;;;3.20;2.20;;;;;21.00;101096.00;;;;2065820;28;20309;-67
2020/12/18 00:44:55;;;;;;;5.10;2.07;;;;;21.00;101103.00;;;;2068858;28;20225;-67
2020/12/18 00:45:55;;;;;;;2.37;1.73;;;;;21.00;101102.00;;;;2073748;28;20257;-67
2020/12/18 00:46:56;;;;;;;1.80;1.57;;;;;21.00;101100.00;;;;2077029;28;20478;-67
2020/12/18 00:47:56;;;;;;;2.13;1.97;;;;;21.00;101107.00;;;;2078070;28;20224;-67
2020/12/18 00:48:56;;;;;;;4.53;1.70;;;;;21.00;101109.00;;;;2079522;28;20219;-67
2020/12/18 00:49:57;;;;;;;2.80;1.53;;;;;21.00;101111.00;;;;2080247;28;20240;-67
2020/12/18 00:50:57;;;;;;;2.20;1.63;;;;;21.00;101109.00;;;;2080826;28;20270;-67
2020/12/18 00:51:58;;;;;;;2.00;1.80;;;;;21.00;101109.00;;;;2074544;28;20214;-67
2020/12/18 00:52:58;;;;;;;1.97;1.70;;;;;21.00;101112.00;;;;2078947;28;20219;-67
2020/12/18 00:53:58;;;;;;;1.77;1.30;;;;;21.00;101109.00;;;;2072035;28;20679;-67
2020/12/18 00:54:59;;;;;;;4.23;2.00;;;;;21.00;101113.00;;;;2078821;28;20220;-67
2020/12/18 00:55:59;;;;;;;1.87;1.70;;;;;21.00;101108.00;;;;2074003;28;20224;-67
2020/12/18 00:57:00;;;;;;;2.03;1.73;;;;;21.00;101102.00;;;;2076340;28;20233;-67
2020/12/18 00:58:00;;;;;;;2.43;1.73;;;;;20.90;101106.00;;;;2074075;28;20221;-67
2020/12/18 00:59:00;;;;;;;2.07;1.77;;;;;20.90;101101.00;;;;2079079;28;20316;-67
2020/12/18 01:00:01;;;;;;;2.67;1.83;;;;;20.90;101111.00;;;;2074197;28;20317;-67
2020/12/18 01:01:02;;;;;;;2.57;1.77;;;;;20.90;101113.00;;;;2079282;28;20220;-67
2020/12/18 01:02:05;;;;;;;2.15;1.95;;;;;21.00;101092.00;;;;2073641;28;20220;-67
2020/12/18 01:03:06;;;;;;;1.65;1.30;;;;;21.00;101101.00;;;;2079744;28;20261;-67
2020/12/18 01:04:06;;;;;;;2.30;1.90;;;;;20.90;101093.00;;;;2073458;28;20627;-67
2020/12/18 01:05:06;;;;;;;2.30;1.63;;;;;20.90;101093.00;;;;2079793;28;20548;-67
2020/12/18 01:06:08;;;;;;;1.70;1.37;;;;;21.00;101106.00;;;;2070395;28;20786;-67
2020/12/18 01:07:09;;;;;;;2.97;1.90;;;;;20.90;101100.00;;;;2078842;28;20298;-66
2020/12/18 01:08:09;;;;;;;2.50;1.80;;;;;20.90;101096.00;;;;2072877;28;20220;-66
2020/12/18 01:09:09;;;;;;;2.20;1.37;;;;;20.90;101051.00;;;;2080269;28;20208;-67
2020/12/18 01:10:09;;;;;;;1.60;1.50;;;;;20.90;101102.00;;;;2072853;28;20212;-66
2020/12/18 01:11:10;;;;;;;3.70;1.80;;;;;20.90;101100.00;;;;2072248;28;20250;-67
2020/12/18 01:12:11;;;;;;;2.53;1.80;;;;;20.90;101100.00;;;;2072636;28;20590;-67
2020/12/18 01:13:11;;;;;;;1.93;1.73;;;;;20.80;101103.00;;;;2080482;28;20920;-67
2020/12/18 01:14:11;;;;;;;1.53;1.40;;;;;20.90;101105.00;;;;2072557;28;20540;-66
2020/12/18 01:15:12;;;;;;;1.70;1.57;;;;;20.90;101108.00;;;;2080396;28;20212;-67
2020/12/18 01:16:12;;;;;;;3.87;1.90;;;;;20.90;101108.00;;;;2071755;28;20303;-66
2020/12/18 01:17:14;;;;;;;3.57;2.47;;;;;20.90;101110.00;;;;2076201;28;20262;-67
2020/12/18 01:18:14;;;;;;;2.20;1.70;;;;;20.90;101102.00;;;;2078178;28;20707;-67
2020/12/18 01:19:14;;;;;;;2.40;1.50;;;;;20.90;101107.00;;;;2080290;28;20231;-67
2020/12/18 01:20:14;;;;;;;2.27;1.80;;;;;20.90;101103.00;;;;2080521;28;20223;-67
2020/12/18 01:21:15;;;;;;;1.70;1.57;;;;;20.90;101101.00;;;;2080256;28;20242;-67
2020/12/18 01:22:15;;;;;;;3.40;1.57;;;;;20.90;101103.00;;;;2072709;28;20216;-67
2020/12/18 01:23:16;;;;;;;1.93;1.50;;;;;20.90;101102.00;;;;2080211;28;20678;-67
2020/12/18 01:24:19;;;;;;;1.80;1.60;;;;;20.90;101095.00;;;;2064290;28;20225;-67
2020/12/18 01:25:19;;;;;;;2.15;1.50;;;;;20.90;101105.00;;;;2070700;28;20303;-66
2020/12/18 01:26:19;;;;;;;3.97;1.83;;;;;20.90;101102.00;;;;2065133;28;20262;-67
2020/12/18 01:27:20;;;;;;;2.50;1.33;;;;;20.90;101099.00;;;;2079229;28;20223;-67
2020/12/18 01:28:20;;;;;;;3.50;1.80;;;;;20.90;101101.00;;;;2073301;28;20288;-67
2020/12/18 01:29:20;;;;;;;1.77;1.50;;;;;20.90;101109.00;;;;2080632;28;20205;-67
2020/12/18 01:30:23;;;;;;;1.87;1.40;;;;;20.90;101107.00;;;;2079277;28;20230;-67
2020/12/18 01:31:24;;;;;;;2.10;1.60;;;;;20.90;101104.00;;;;2073981;28;20253;-67
2020/12/18 01:32:24;;;;;;;1.73;1.40;;;;;20.90;101104.00;;;;2078686;28;20757;-67
2020/12/18 01:33:24;;;;;;;2.10;1.50;;;;;20.90;101095.00;;;;2074050;28;20217;-67
2020/12/18 01:34:25;;;;;;;1.57;1.47;;;;;20.90;101091.00;;;;2070097;28;20668;-67
2020/12/18 01:35:25;;;;;;;2.07;1.57;;;;;20.90;101102.00;;;;2064168;28;20703;-66
2020/12/18 01:36:25;;;;;;;3.00;1.80;;;;;20.90;101103.00;;;;2079247;28;20831;-66
2020/12/18 01:37:26;;;;;;;2.67;1.47;;;;;20.80;101106.00;;;;2074227;28;20620;-66
2020/12/18 01:38:26;;;;;;;1.67;1.50;;;;;20.90;101103.00;;;;2078746;28;20204;-66
2020/12/18 01:39:26;;;;;;;2.23;1.67;;;;;20.80;101101.00;;;;2065523;28;20223;-66
2020/12/18 01:40:27;;;;;;;2.53;1.30;;;;;20.90;101099.00;;;;2069885;28;20213;-67
2020/12/18 01:41:27;;;;;;;2.50;1.67;;;;;20.80;101102.00;;;;2057854;28;20257;-67
2020/12/18 01:42:27;;;;;;;2.30;1.27;;;;;20.80;101100.00;;;;2060919;28;20329;-66
2020/12/18 01:43:28;;;;;;;1.67;1.47;;;;;20.90;101105.00;;;;2063635;28;20273;-67
2020/12/18 01:44:28;;;;;;;2.33;1.60;;;;;20.90;101111.00;;;;2078130;28;20212;-67
2020/12/18 01:45:28;;;;;;;1.50;1.33;;;;;20.90;101100.00;;;;2074265;28;20215;-67
2020/12/18 01:46:29;;;;;;;2.20;1.60;;;;;20.90;101102.00;;;;2078151;28;20215;-67
2020/12/18 01:47:30;;;;;;;1.50;1.40;;;;;20.80;101102.00;;;;2075885;28;20265;-67
2020/12/18 01:48:31;;;;;;;2.90;1.70;;;;;20.80;101104.00;;;;2071148;28;20460;-67
2020/12/18 01:49:31;;;;;;;2.10;1.30;;;;;20.80;101102.00;;;;2049703;28;20343;-67
2020/12/18 01:50:31;;;;;;;1.93;1.47;;;;;20.80;101103.00;;;;2063583;28;20240;-67
2020/12/18 01:51:32;;;;;;;1.50;1.30;;;;;20.80;101107.00;;;;2058157;28;20569;-67
2020/12/18 01:52:33;;;;;;;1.50;1.40;;;;;20.80;101111.00;;;;2063357;28;20322;-67
2020/12/18 01:53:34;;;;;;;1.65;1.17;;;;;20.80;101106.00;;;;2068824;28;20228;-67
2020/12/18 01:54:34;;;;;;;1.87;1.77;;;;;20.80;101108.00;;;;2066083;28;20215;-67
2020/12/18 01:55:35;;;;;;;2.03;1.43;;;;;20.80;101100.00;;;;2068663;28;20231;-67
2020/12/18 01:56:35;;;;;;;1.90;1.37;;;;;20.80;101104.00;;;;2066184;28;20217;-67
2020/12/18 01:57:36;;;;;;;2.07;1.30;;;;;20.80;101110.00;;;;2060216;28;20218;-67
2020/12/18 01:58:37;;;;;;;2.70;1.90;;;;;20.80;101111.00;;;;2058689;28;20216;-66
2020/12/18 01:59:38;;;;;;;2.03;1.50;;;;;20.80;101110.00;;;;2068252;28;20489;-67
2020/12/18 02:00:38;;;;;;;1.57;1.30;;;;;20.80;101108.00;;;;2075575;28;20212;-66
2020/12/18 02:01:39;;;;;;;1.57;1.10;;;;;20.80;101104.00;;;;2076705;28;20216;-67
2020/12/18 02:02:39;;;;;;;2.03;1.50;;;;;20.80;101105.00;;;;2075263;28;20251;-67
2020/12/18 02:03:40;;;;;;;1.93;1.40;;;;;20.80;101111.00;;;;2076406;28;20224;-67
2020/12/18 02:04:42;;;;;;;3.10;1.50;;;;;20.80;101100.00;;;;2075612;28;20220;-67
2020/12/18 02:05:42;;;;;;;2.33;1.25;;;;;20.80;101107.00;;;;2076076;28;20217;-66
2020/12/18 02:06:43;;;;;;;2.23;1.60;;;;;20.80;101083.00;;;;2075442;28;20240;-67
2020/12/18 02:07:45;;;;;;;1.87;1.40;;;;;20.80;101095.00;;;;2049046;28;20246;-66
2020/12/18 02:08:45;;;;;;;2.42;1.70;;;;;20.80;101102.00;;;;2051603;28;20212;-66
2020/12/18 02:09:46;;;;;;;1.53;1.27;;;;;20.80;101089.00;;;;2054624;28;20215;-66
2020/12/18 02:10:48;;;;;;;2.60;1.67;;;;;20.80;101099.00;;;;2058757;28;20321;-66
2020/12/18 02:11:48;;;;;;;1.95;1.40;;;;;20.80;101095.00;;;;2068212;28;20236;-67
2020/12/18 02:12:49;;;;;;;1.40;1.27;;;;;20.80;101091.00;;;;2058264;28;20216;-66
2020/12/18 02:13:52;;;;;;;1.70;1.50;;;;;20.80;101088.00;;;;2052207;28;20237;-67
2020/12/18 02:14:53;;;;;;;1.67;1.55;;;;;20.80;101090.00;;;;2066145;28;20311;-67
2020/12/18 02:15:53;;;;;;;1.17;0.93;;;;;20.80;101084.00;;;;2077096;28;20226;-67
2020/12/18 02:16:54;;;;;;;1.90;1.30;;;;;20.80;101086.00;;;;2067037;28;20206;-67
2020/12/18 02:17:54;;;;;;;1.60;1.50;;;;;20.80;101085.00;;;;2063212;28;20220;-67
2020/12/18 02:18:55;;;;;;;2.80;1.53;;;;;20.80;101091.00;;;;2059929;28;20211;-67
2020/12/18 02:19:56;;;;;;;1.50;1.40;;;;;20.80;101084.00;;;;2069281;28;20305;-67
2020/12/18 02:20:56;;;;;;;2.50;1.80;;;;;20.80;101076.00;;;;2080203;28;20726;-67
2020/12/18 02:22:06;;;;;;;1.50;1.23;;;;;20.80;101086.00;;;;2074036;28;20358;-67
2020/12/18 02:23:07;;;;;;;2.22;1.90;;;;;20.80;101081.00;;;;2070486;28;20224;-67
2020/12/18 02:24:07;;;;;;;2.67;1.20;;;;;20.80;101079.00;;;;2063739;28;20853;-67
2020/12/18 02:25:09;;;;;;;2.60;1.70;;;;;20.80;101072.00;;;;2070481;28;20690;-67
2020/12/18 02:26:13;;;;;;;1.63;1.10;;;;;20.70;101081.00;;;;2071210;28;20260;-67
2020/12/18 02:27:13;;;;;;;4.50;1.58;;;;;20.80;101082.00;;;;2071957;28;20209;-67
2020/12/18 02:28:13;;;;;;;2.93;1.30;;;;;20.80;101079.00;;;;2076640;28;20365;-67
2020/12/18 02:29:14;;;;;;;1.60;1.40;;;;;20.70;101086.00;;;;2077559;28;20211;-67
2020/12/18 02:30:14;;;;;;;2.67;1.90;;;;;20.80;101083.00;;;;2079900;28;20801;-67
2020/12/18 02:31:15;;;;;;;2.50;1.20;;;;;20.80;101079.00;;;;2080021;28;20212;-67
2020/12/18 02:32:15;;;;;;;2.87;1.50;;;;;20.80;101081.00;;;;2077519;28;20274;-67
2020/12/18 02:33:15;;;;;;;1.27;1.17;;;;;20.80;101080.00;;;;2054056;28;20213;-65
2020/12/18 02:34:28;;;;;;;2.60;1.37;;;;;20.80;101085.00;;;;2054602;28;20213;-66
2020/12/18 02:35:28;;;;;;;1.70;1.50;;;;;20.80;101087.00;;;;2066834;28;20774;-67
2020/12/18 02:36:28;;;;;;;2.33;1.40;;;;;20.80;101082.00;;;;2077829;28;20228;-67
2020/12/18 02:37:29;;;;;;;3.10;1.37;;;;;20.70;101075.00;;;;2073814;28;20208;-67
2020/12/18 02:38:30;;;;;;;1.55;1.20;;;;;20.70;101077.00;;;;2077664;28;20215;-67
2020/12/18 02:39:30;;;;;;;1.90;1.23;;;;;20.70;101077.00;;;;2074318;28;20212;-67
2020/12/18 02:40:30;;;;;;;1.43;1.20;;;;;20.70;101071.00;;;;2077567;28;20210;-67
2020/12/18 02:41:31;;;;;;;1.87;1.40;;;;;20.70;101077.00;;;;2074203;28;20216;-67
2020/12/18 02:42:31;;;;;;;1.60;1.07;;;;;20.70;101079.00;;;;2077266;28;20287;-67
2020/12/18 02:43:31;;;;;;;2.10;1.40;;;;;20.70;101072.00;;;;2074133;28;20303;-67
2020/12/18 02:44:32;;;;;;;1.40;0.87;;;;;20.70;101074.00;;;;2077191;28;20212;-66
2020/12/18 02:45:32;;;;;;;1.73;1.30;;;;;20.70;101069.00;;;;2073755;28;20713;-67
2020/12/18 02:46:33;;;;;;;2.50;1.43;;;;;20.70;101070.00;;;;2077202;28;20212;-67
2020/12/18 02:47:33;;;;;;;1.70;1.60;;;;;20.70;101072.00;;;;2074462;28;20736;-67
2020/12/18 02:48:33;;;;;;;2.60;1.40;;;;;20.70;101074.00;;;;2077091;28;20701;-67
2020/12/18 02:49:34;;;;;;;1.63;1.40;;;;;20.70;101080.00;;;;2074640;28;20872;-67
2020/12/18 02:50:34;;;;;;;1.60;1.27;;;;;20.70;101075.00;;;;2076967;28;20714;-67
2020/12/18 02:51:34;;;;;;;2.13;1.20;;;;;20.70;101074.00;;;;2073895;28;20709;-67
2020/12/18 02:52:35;;;;;;;2.30;1.00;;;;;20.70;101076.00;;;;2076530;28;20689;-67
2020/12/18 02:53:35;;;;;;;2.97;1.07;;;;;20.70;101073.00;;;;2049873;28;20692;-67
2020/12/18 02:54:35;;;;;;;1.13;1.00;;;;;20.70;101073.00;;;;2059444;28;20229;-67
2020/12/18 02:55:36;;;;;;;1.40;1.00;;;;;20.70;101067.00;;;;2071594;28;20211;-67
2020/12/18 02:56:36;;;;;;;2.10;1.47;;;;;20.70;101078.00;;;;2076353;28;20236;-67
2020/12/18 02:57:36;;;;;;;1.60;1.27;;;;;20.70;101074.00;;;;2074427;28;20208;-67
2020/12/18 02:58:37;;;;;;;3.70;1.20;;;;;20.70;101080.00;;;;2076950;28;20227;-67
2020/12/18 02:59:37;;;;;;;1.43;1.30;;;;;20.70;101067.00;;;;2079412;28;20223;-67
2020/12/18 03:00:38;;;;;;;1.57;1.10;;;;;20.70;101075.00;;;;2065703;28;20610;-67
2020/12/18 03:01:38;;;;;;;2.37;1.23;;;;;20.70;101075.00;;;;2066309;28;20607;-67
2020/12/18 03:02:39;;;;;;;1.40;1.30;;;;;20.70;101078.00;;;;2070324;28;20283;-67
2020/12/18 03:03:39;;;;;;;1.57;1.00;;;;;20.70;101078.00;;;;2075269;28;20260;-67
2020/12/18 03:04:39;;;;;;;1.40;1.30;;;;;20.70;101078.00;;;;2076194;28;20212;-67
2020/12/18 03:05:40;;;;;;;1.50;1.30;;;;;20.70;101072.00;;;;2075458;28;20219;-67
2020/12/18 03:06:40;;;;;;;2.43;1.03;;;;;20.70;101078.00;;;;2076085;28;20244;-67
2020/12/18 03:07:40;;;;;;;2.20;1.20;;;;;20.70;101083.00;;;;2075431;28;20216;-67
2020/12/18 03:08:41;;;;;;;1.17;0.90;;;;;20.70;101083.00;;;;2075401;28;20709;-67
2020/12/18 03:09:41;;;;;;;1.30;1.10;;;;;20.70;101079.00;;;;2075569;28;20224;-66
2020/12/18 03:10:41;;;;;;;1.87;1.37;;;;;20.70;101071.00;;;;2075833;28;20684;-67
2020/12/18 03:11:42;;;;;;;3.67;1.43;;;;;20.70;101077.00;;;;2075209;28;20220;-67
2020/12/18 03:12:43;;;;;;;2.50;1.30;;;;;20.70;101076.00;;;;2075443;28;20220;-67
2020/12/18 03:13:45;;;;;;;2.40;1.37;;;;;20.70;101080.00;;;;2066938;28;20806;-67
2020/12/18 03:14:45;;;;;;;1.25;1.15;;;;;20.70;101079.00;;;;2062798;28;20452;-67
2020/12/18 03:15:45;;;;;;;1.87;1.30;;;;;20.60;101073.00;;;;2067327;28;20710;-67
2020/12/18 03:16:46;;;;;;;3.53;1.53;;;;;20.60;101067.00;;;;2079534;28;20209;-67
2020/12/18 03:17:46;;;;;;;1.83;1.10;;;;;20.60;101081.00;;;;2074784;28;20264;-65
2020/12/18 03:18:46;;;;;;;1.90;1.40;;;;;20.70;101071.00;;;;2076192;28;20697;-66
2020/12/18 03:19:47;;;;;;;2.20;1.33;;;;;20.70;101073.00;;;;2075160;28;20213;-67
2020/12/18 03:20:47;;;;;;;3.37;1.20;;;;;20.60;101074.00;;;;2076205;28;20279;-67
2020/12/18 03:21:47;;;;;;;2.40;1.30;;;;;20.60;101071.00;;;;2074913;28;20210;-67
2020/12/18 03:22:48;;;;;;;1.30;1.00;;;;;20.60;101077.00;;;;2075808;28;20230;-67
2020/12/18 03:23:48;;;;;;;2.80;1.17;;;;;20.70;101076.00;;;;2074780;28;20224;-67
2020/12/18 03:24:48;;;;;;;4.03;1.13;;;;;20.60;101082.00;;;;2076340;28;20219;-67
2020/12/18 03:25:49;;;;;;;1.77;1.20;;;;;20.60;101076.00;;;;2074836;28;20294;-67
2020/12/18 03:26:49;;;;;;;1.97;1.00;;;;;20.60;101074.00;;;;2076336;28;20219;-67
2020/12/18 03:27:49;;;;;;;2.57;1.33;;;;;20.60;101088.00;;;;2075826;28;20228;-66
2020/12/18 03:28:50;;;;;;;2.37;1.10;;;;;20.60;101076.00;;;;2077336;28;20215;-67
2020/12/18 03:29:50;;;;;;;3.60;1.23;;;;;20.60;101079.00;;;;2076987;28;20221;-67
2020/12/18 03:30:51;;;;;;;3.63;1.20;;;;;20.60;101077.00;;;;2076680;28;20220;-67
2020/12/18 03:31:51;;;;;;;1.47;1.10;;;;;20.60;101078.00;;;;2079727;28;20749;-67
2020/12/18 03:32:52;;;;;;;2.03;1.47;;;;;20.60;101074.00;;;;2074049;28;20475;-67
2020/12/18 03:33:52;;;;;;;2.20;1.13;;;;;20.60;101079.00;;;;2070745;28;20884;-66
2020/12/18 03:34:52;;;;;;;4.77;1.60;;;;;20.60;101077.00;;;;2076852;28;20592;-65
2020/12/18 03:35:53;;;;;;;1.70;1.17;;;;;20.60;101073.00;;;;2079512;28;20575;-66
2020/12/18 03:36:54;;;;;;;5.10;1.10;;;;;20.70;101074.00;;;;2074047;28;20289;-66
2020/12/18 03:37:54;;;;;;;2.57;1.60;;;;;20.60;101078.00;;;;2076790;28;20499;-67
2020/12/18 03:38:54;;;;;;;4.73;1.30;;;;;20.60;101070.00;;;;2073930;28;20222;-67
2020/12/18 03:39:55;;;;;;;2.10;1.20;;;;;20.60;101079.00;;;;2077200;28;20220;-67
2020/12/18 03:40:55;;;;;;;3.13;1.40;;;;;20.60;101077.00;;;;2073962;28;20688;-67
2020/12/18 03:41:55;;;;;;;2.50;1.20;;;;;20.60;101073.00;;;;2077229;28;20710;-66
2020/12/18 03:42:56;;;;;;;4.20;1.20;;;;;20.60;101069.00;;;;2064609;28;20798;-66
2020/12/18 03:43:56;;;;;;;4.13;1.30;;;;;20.60;101073.00;;;;2068639;28;20224;-67
2020/12/18 03:44:56;;;;;;;3.90;1.53;;;;;20.60;101076.00;;;;2073455;28;20218;-67
2020/12/18 03:45:57;;;;;;;4.17;1.33;;;;;20.70;101081.00;;;;2076406;28;20225;-67
2020/12/18 03:46:57;;;;;;;6.20;1.30;;;;;20.60;101079.00;;;;2073101;28;20284;-67
2020/12/18 03:47:57;;;;;;;1.70;1.10;;;;;20.60;101066.00;;;;2070920;28;20703;-67
2020/12/18 03:48:58;;;;;;;3.00;1.20;;;;;20.60;101073.00;;;;2077144;28;20588;-67
2020/12/18 03:49:58;;;;;;;3.10;1.23;;;;;20.60;101080.00;;;;2072993;28;20593;-67
2020/12/18 03:50:58;;;;;;;2.70;1.10;;;;;20.70;101077.00;;;;2077170;28;20646;-67
2020/12/18 03:51:59;;;;;;;2.40;1.30;;;;;20.70;101070.00;;;;2079201;28;20219;-67
2020/12/18 03:52:59;;;;;;;8.70;1.40;;;;;20.70;101069.00;;;;2072467;28;20252;-67
2020/12/18 03:54:00;;;;;;;1.83;1.30;;;;;20.70;101072.00;;;;2076797;28;20215;-67
2020/12/18 03:55:00;;;;;;;2.20;1.10;;;;;20.70;101078.00;;;;2072480;28;20220;-67
2020/12/18 03:56:00;;;;;;;5.27;1.40;;;;;20.70;101078.00;;;;2074442;28;20740;-66
2020/12/18 03:57:01;;;;;;;2.03;1.10;;;;;20.60;101081.00;;;;2072313;28;20208;-67
2020/12/18 03:58:01;;;;;;;4.53;1.57;;;;;20.70;101079.00;;;;2077094;28;20225;-67
2020/12/18 03:59:02;;;;;;;1.57;1.00;;;;;20.70;101072.00;;;;2076868;28;20246;-67
2020/12/18 04:00:05;;;;;;;2.60;1.05;;;;;20.70;101076.00;;;;2076093;28;20213;-67
2020/12/18 04:01:06;;;;;;;3.42;1.20;;;;;20.60;101074.00;;;;2079181;28;20221;-67
2020/12/18 04:02:06;;;;;;;2.80;1.03;;;;;20.70;101068.00;;;;2079042;28;20215;-67
2020/12/18 04:03:06;;;;;;;1.57;1.00;;;;;20.70;101069.00;;;;2071584;28;20739;-67
2020/12/18 04:04:07;;;;;;;2.70;1.23;;;;;20.60;101075.00;;;;2078440;28;20213;-67
2020/12/18 04:05:07;;;;;;;1.50;1.10;;;;;20.70;101081.00;;;;2071551;28;20216;-67
2020/12/18 04:06:07;;;;;;;2.50;1.00;;;;;20.70;101072.00;;;;2077763;28;20228;-67
2020/12/18 04:07:08;;;;;;;2.17;1.27;;;;;20.70;101076.00;;;;2071360;28;20304;-67
2020/12/18 04:08:08;;;;;;;3.43;1.00;;;;;20.70;101083.00;;;;2071510;28;20224;-67
2020/12/18 04:09:10;;;;;;;2.70;1.40;;;;;20.60;101080.00;;;;2078425;28;20227;-67
2020/12/18 04:10:10;;;;;;;3.58;1.20;;;;;20.60;101078.00;;;;2078235;28;20695;-67
2020/12/18 04:11:11;;;;;;;1.93;1.20;;;;;20.60;101075.00;;;;2078054;28;20228;-67
2020/12/18 04:12:12;;;;;;;3.10;1.40;;;;;20.50;101071.00;;;;2071289;28;20728;-67
2020/12/18 04:13:12;;;;;;;3.27;1.20;;;;;20.70;101077.00;;;;2077518;28;20291;-67
2020/12/18 04:14:12;;;;;;;6.53;1.10;;;;;20.70;101078.00;;;;2074343;28;20869;-67
2020/12/18 04:15:13;;;;;;;2.47;1.20;;;;;20.60;101074.00;;;;2071225;28;20213;-67
2020/12/18 04:16:13;;;;;;;3.60;1.30;;;;;20.70;101073.00;;;;2079174;28;20579;-67
2020/12/18 04:17:13;;;;;;;1.87;1.00;;;;;20.70;101075.00;;;;2079413;28;20220;-67
2020/12/18 04:18:15;;;;;;;2.80;0.90;;;;;20.70;101081.00;;;;2079196;28;20294;-67
2020/12/18 04:19:15;;;;;;;2.25;1.20;;;;;20.70;101079.00;;;;2071733;28;20693;-67
2020/12/18 04:20:15;;;;;;;1.30;1.10;;;;;20.70;101084.00;;;;2080465;28;20244;-67
2020/12/18 04:21:16;;;;;;;5.70;1.40;;;;;20.60;101081.00;;;;2073399;28;20225;-67
2020/12/18 04:22:16;;;;;;;6.97;1.97;;;;;20.60;101079.00;;;;2080424;28;20268;-68
2020/12/18 04:23:16;;;;;;;6.43;1.40;;;;;20.60;101080.00;;;;2073354;28;20218;-67
2020/12/18 04:24:17;;;;;;;6.27;1.20;;;;;20.60;101076.00;;;;2080527;28;20218;-67
2020/12/18 04:25:17;;;;;;;2.90;1.30;;;;;20.60;101078.00;;;;2072701;28;20215;-67
2020/12/18 04:26:17;;;;;;;3.40;1.27;;;;;20.60;101084.00;;;;2080515;28;20292;-67
2020/12/18 04:27:18;;;;;;;2.27;1.10;;;;;20.60;101079.00;;;;2073535;28;20240;-67
2020/12/18 04:28:18;;;;;;;4.07;1.17;;;;;20.60;101080.00;;;;2080204;28;20229;-67
2020/12/18 04:29:18;;;;;;;4.00;1.10;;;;;20.60;101076.00;;;;2073552;28;20236;-67
2020/12/18 04:30:19;;;;;;;3.70;1.50;;;;;20.60;101075.00;;;;2080178;28;20232;-68
2020/12/18 04:31:19;;;;;;;3.47;1.00;;;;;20.60;101082.00;;;;2073721;28;20231;-67
2020/12/18 04:32:19;;;;;;;3.97;1.30;;;;;20.60;101077.00;;;;2079793;28;20254;-67
2020/12/18 04:33:20;;;;;;;3.57;1.27;;;;;20.60;101078.00;;;;2073658;28;20369;-68
2020/12/18 04:34:20;;;;;;;3.00;1.60;;;;;20.60;101078.00;;;;2079865;28;20710;-67
2020/12/18 04:35:20;;;;;;;2.07;1.10;;;;;20.60;101073.00;;;;2072828;28;21135;-67
2020/12/18 04:36:21;;;;;;;2.53;1.13;;;;;20.60;101069.00;;;;2079734;28;20731;-68
2020/12/18 04:37:21;;;;;;;4.83;1.30;;;;;20.60;101075.00;;;;2073774;28;20700;-67
2020/12/18 04:38:21;;;;;;;4.27;1.00;;;;;20.60;101072.00;;;;2079703;28;20745;-67
2020/12/18 04:39:22;;;;;;;1.93;1.10;;;;;20.60;101083.00;;;;2057264;28;20708;-67
2020/12/18 04:40:22;;;;;;;3.37;1.03;;;;;20.60;101069.00;;;;2062784;28;20861;-67
2020/12/18 04:41:25;;;;;;;3.03;1.47;;;;;20.60;101051.00;;;;2073451;28;20599;-67
2020/12/18 04:42:25;;;;;;;3.45;1.35;;;;;20.60;101068.00;;;;2070376;28;20610;-67
2020/12/18 04:43:25;;;;;;;1.73;1.10;;;;;20.60;101061.00;;;;2065682;28;20217;-67
2020/12/18 04:44:26;;;;;;;5.47;1.33;;;;;20.60;101069.00;;;;2078043;28;20271;-67
2020/12/18 04:45:26;;;;;;;2.60;0.87;;;;;20.60;101074.00;;;;2071351;28;20221;-68
2020/12/18 04:46:26;;;;;;;2.20;1.17;;;;;20.60;101062.00;;;;2072040;28;20236;-67
2020/12/18 04:47:27;;;;;;;5.43;1.27;;;;;20.60;101070.00;;;;2071927;28;20218;-67
2020/12/18 04:48:27;;;;;;;2.60;1.10;;;;;20.60;101068.00;;;;2062097;28;20213;-67
2020/12/18 04:49:29;;;;;;;1.50;0.80;;;;;20.60;101068.00;;;;2066166;28;20214;-67
2020/12/18 04:50:29;;;;;;;1.88;0.98;;;;;20.60;101066.00;;;;2069809;28;20232;-67
2020/12/18 04:51:30;;;;;;;4.67;1.43;;;;;20.60;101066.00;;;;2066323;28;20217;-67
2020/12/18 04:52:30;;;;;;;2.10;1.17;;;;;20.50;101066.00;;;;2061595;28;20800;-68
2020/12/18 04:53:32;;;;;;;3.77;1.53;;;;;20.50;101063.00;;;;2050260;28;20269;-67
2020/12/18 04:54:33;;;;;;;7.47;1.17;;;;;20.40;101060.00;;;;2063904;28;20220;-67
2020/12/18 04:55:34;;;;;;;3.40;1.13;;;;;20.50;101068.00;;;;2058077;28;20738;-66
2020/12/18 04:56:34;;;;;;;3.23;1.17;;;;;20.50;101063.00;;;;2061175;28;20269;-66
2020/12/18 04:57:35;;;;;;;3.00;1.40;;;;;20.60;101060.00;;;;2058927;28;20704;-66
2020/12/18 04:58:38;;;;;;;3.53;1.00;;;;;20.60;101061.00;;;;2056017;28;20237;-67
2020/12/18 04:59:39;;;;;;;3.90;1.40;;;;;20.60;101063.00;;;;2056585;28;20236;-66